createdAt,value
2022-07-25T00:00:22.250Z,25.80
2022-07-25T00:02:55.501Z,25.80
2022-07-25T00:05:25.587Z,25.80
2022-07-25T00:07:54.680Z,25.90
2022-07-25T00:10:23.982Z,26.00
2022-07-25T00:12:53.048Z,26.10
2022-07-25T00:15:22.312Z,26.10
2022-07-25T00:17:51.453Z,26.20
2022-07-25T00:20:20.844Z,26.30
2022-07-25T00:22:49.988Z,26.40
2022-07-25T00:25:19.175Z,26.50
2022-07-25T00:27:48.367Z,26.50
2022-07-25T00:30:17.473Z,26.60
2022-07-25T00:32:46.676Z,26.70
2022-07-25T00:35:15.885Z,26.80
2022-07-25T00:37:44.982Z,26.80
2022-07-25T00:40:14.723Z,26.90
2022-07-25T00:42:43.887Z,27.00
2022-07-25T00:45:13.175Z,27.10
2022-07-25T00:47:42.333Z,27.20
2022-07-25T00:50:11.648Z,27.20
2022-07-25T00:52:41.191Z,27.40
2022-07-25T00:55:10.797Z,27.40
2022-07-25T00:57:39.895Z,27.50
2022-07-25T01:00:13.383Z,27.60
2022-07-25T01:02:43.342Z,27.60
2022-07-25T01:05:13.694Z,27.70
2022-07-25T01:07:43.005Z,27.80
2022-07-25T01:10:12.487Z,27.80
2022-07-25T01:12:57.601Z,27.90
2022-07-25T01:15:27.281Z,28.00
2022-07-25T01:17:56.711Z,28.10
2022-07-25T01:20:28.961Z,28.10
2022-07-25T01:23:08.319Z,28.20
2022-07-25T01:25:37.465Z,28.20
2022-07-25T01:28:06.890Z,28.30
2022-07-25T01:30:36.047Z,28.40
2022-07-25T01:33:07.159Z,28.50
2022-07-25T01:35:41.550Z,28.50
2022-07-25T01:38:12.453Z,28.50
2022-07-25T01:40:42.224Z,28.60
2022-07-25T01:43:12.317Z,28.60
2022-07-25T01:45:41.439Z,28.70
2022-07-25T01:48:10.696Z,28.70
2022-07-25T01:50:39.809Z,28.80
2022-07-25T01:53:08.923Z,28.90
2022-07-25T01:55:38.019Z,28.90
2022-07-25T01:58:07.028Z,29.00
2022-07-25T02:00:39.582Z,29.10
2022-07-25T02:03:26.827Z,29.10
2022-07-25T02:05:56.163Z,29.20
2022-07-25T02:08:25.413Z,29.30
2022-07-25T02:10:54.782Z,29.40
2022-07-25T02:13:24.183Z,29.50
2022-07-25T02:15:53.514Z,29.60
2022-07-25T02:18:22.796Z,29.70
2022-07-25T02:20:51.935Z,29.80
2022-07-25T02:23:20.985Z,30.00
2022-07-25T02:25:50.082Z,30.10
2022-07-25T02:28:19.411Z,30.10
2022-07-25T02:30:48.718Z,30.30
2022-07-25T02:33:17.946Z,30.40
2022-07-25T02:35:47.132Z,30.50
2022-07-25T02:38:20.738Z,30.60
2022-07-25T02:40:50.826Z,30.80
2022-07-25T02:43:21.121Z,30.90
2022-07-25T02:45:50.259Z,31.00
2022-07-25T02:48:19.537Z,31.20
2022-07-25T02:50:48.698Z,31.30
2022-07-25T02:53:33.927Z,31.50
2022-07-25T02:56:07.496Z,31.60
2022-07-25T02:58:36.879Z,31.60
2022-07-25T03:01:09.143Z,31.60
2022-07-25T03:03:38.477Z,31.70
2022-07-25T03:06:07.790Z,31.60
2022-07-25T03:08:36.924Z,31.60
2022-07-25T03:11:06.055Z,31.70
2022-07-25T03:13:35.257Z,31.70
2022-07-25T03:16:04.629Z,31.80
2022-07-25T03:18:33.664Z,31.90
2022-07-25T03:21:02.937Z,32.00
2022-07-25T03:23:32.128Z,32.20
2022-07-25T03:26:01.262Z,32.30
2022-07-25T03:28:30.330Z,32.50
2022-07-25T03:30:59.368Z,32.70
2022-07-25T03:33:28.522Z,32.80
2022-07-25T03:35:57.749Z,32.90
2022-07-25T03:38:26.783Z,33.00
2022-07-25T03:40:55.817Z,33.20
2022-07-25T03:43:24.947Z,33.30
2022-07-25T03:45:54.076Z,33.40
2022-07-25T03:48:23.359Z,33.60
2022-07-25T03:50:52.410Z,33.70
2022-07-25T03:53:21.474Z,33.80
2022-07-25T03:55:50.770Z,34.00
2022-07-25T03:58:19.876Z,34.10
2022-07-25T04:00:49.935Z,34.00
2022-07-25T04:03:18.983Z,34.00
2022-07-25T04:05:48.100Z,34.00
2022-07-25T04:08:17.310Z,33.90
2022-07-25T04:10:49.188Z,33.90
2022-07-25T04:13:18.208Z,33.80
2022-07-25T04:15:47.352Z,33.70
2022-07-25T04:18:20.872Z,33.60
2022-07-25T04:20:54.320Z,33.50
2022-07-25T04:23:23.446Z,33.40
2022-07-25T04:25:52.559Z,33.30
2022-07-25T04:28:21.677Z,33.20
2022-07-25T04:30:51.552Z,33.10
2022-07-25T04:33:21.180Z,33.10
2022-07-25T04:36:02.154Z,33.00
2022-07-25T04:38:31.319Z,32.90
2022-07-25T04:41:00.471Z,32.80
2022-07-25T04:43:29.963Z,32.70
2022-07-25T04:45:59.101Z,32.80
2022-07-25T04:48:28.527Z,32.70
2022-07-25T04:50:57.697Z,32.80
2022-07-25T04:53:26.858Z,32.70
2022-07-25T04:56:06.321Z,32.70
2022-07-25T04:58:35.508Z,32.70
2022-07-25T05:01:04.729Z,32.70
2022-07-25T05:03:33.843Z,32.70
2022-07-25T05:06:03.005Z,32.60
2022-07-25T05:08:32.183Z,32.70
2022-07-25T05:11:01.437Z,32.60
2022-07-25T05:13:30.624Z,32.60
2022-07-25T05:15:59.897Z,32.60
2022-07-25T05:18:29.118Z,32.60
2022-07-25T05:20:58.274Z,32.70
2022-07-25T05:23:27.338Z,32.90
2022-07-25T05:25:56.436Z,33.00
2022-07-25T05:28:25.529Z,33.10
2022-07-25T05:30:54.621Z,33.30
2022-07-25T05:33:23.717Z,33.50
2022-07-25T05:35:52.813Z,33.80
2022-07-25T05:38:22.220Z,33.90
2022-07-25T05:40:53.270Z,34.00
2022-07-25T05:43:22.458Z,34.00
2022-07-25T05:45:51.631Z,34.10
2022-07-25T05:48:20.695Z,34.20
2022-07-25T05:50:49.815Z,34.20
2022-07-25T05:53:18.924Z,34.30
2022-07-25T05:55:48.078Z,34.30
2022-07-25T05:58:17.242Z,34.30
2022-07-25T06:00:46.406Z,34.40
2022-07-25T06:03:15.608Z,34.60
2022-07-25T06:05:44.749Z,34.80
2022-07-25T06:08:14.707Z,35.00
2022-07-25T06:10:44.619Z,35.30
2022-07-25T06:13:14.342Z,35.50
2022-07-25T06:15:43.510Z,35.60
2022-07-25T06:18:15.050Z,35.70
2022-07-25T06:20:44.540Z,35.60
2022-07-25T06:23:14.259Z,35.60
2022-07-25T06:25:43.881Z,35.70
2022-07-25T06:28:20.150Z,35.80
2022-07-25T06:30:49.600Z,35.90
2022-07-25T06:33:19.080Z,36.00
2022-07-25T06:35:48.474Z,36.20
2022-07-25T06:38:17.849Z,36.40
2022-07-25T06:40:47.368Z,36.50
2022-07-25T06:43:16.758Z,36.70
2022-07-25T06:45:48.578Z,36.80
2022-07-25T06:48:18.557Z,36.90
2022-07-25T06:50:48.389Z,37.00
2022-07-25T06:53:17.770Z,37.10
2022-07-25T06:55:50.342Z,37.20
2022-07-25T06:58:19.779Z,37.30
2022-07-25T07:00:53.438Z,37.40
2022-07-25T07:03:22.931Z,37.50
2022-07-25T07:05:52.438Z,37.70
2022-07-25T07:08:21.761Z,37.80
2022-07-25T07:10:51.378Z,37.70
2022-07-25T07:13:24.316Z,37.50
2022-07-25T07:15:54.842Z,37.40
2022-07-25T07:18:26.416Z,37.20
2022-07-25T07:20:55.984Z,37.00
2022-07-25T07:23:25.126Z,36.90
2022-07-25T07:25:54.283Z,36.70
2022-07-25T07:28:23.503Z,36.50
2022-07-25T07:31:15.600Z,36.30
2022-07-25T07:33:41.820Z,36.20
2022-07-25T07:36:11.513Z,36.20
2022-07-25T07:38:41.172Z,36.20
2022-07-25T07:41:10.243Z,36.20
2022-07-25T07:43:39.435Z,36.30
2022-07-25T07:46:08.914Z,36.30
2022-07-25T07:48:38.183Z,36.30
2022-07-25T07:51:07.864Z,36.20
2022-07-25T07:53:55.381Z,36.20
2022-07-25T07:56:24.585Z,36.30
2022-07-25T07:58:53.706Z,36.20
2022-07-25T08:01:22.921Z,36.20
2022-07-25T08:03:54.866Z,36.10
2022-07-25T08:06:24.075Z,35.90
2022-07-25T08:08:56.479Z,35.90
2022-07-25T08:11:26.905Z,35.90
2022-07-25T08:13:56.028Z,35.80
2022-07-25T08:16:25.212Z,35.80
2022-07-25T08:18:54.537Z,35.70
2022-07-25T08:21:23.930Z,35.60
2022-07-25T08:23:53.311Z,35.50
2022-07-25T08:26:22.739Z,35.40
2022-07-25T08:29:00.014Z,35.20
2022-07-25T08:31:40.494Z,35.10
2022-07-25T08:34:10.120Z,35.00
2022-07-25T08:36:40.468Z,35.00
2022-07-25T08:39:09.813Z,34.90
2022-07-25T08:41:42.795Z,34.90
2022-07-25T08:44:13.167Z,34.90
2022-07-25T08:46:43.735Z,34.90
2022-07-25T08:49:14.121Z,35.00
2022-07-25T08:51:43.808Z,35.00
2022-07-25T08:54:16.403Z,35.10
2022-07-25T08:56:45.882Z,35.10
2022-07-25T08:59:15.266Z,35.20
2022-07-25T09:01:44.709Z,35.20
2022-07-25T09:04:14.366Z,35.10
2022-07-25T09:06:53.971Z,35.00
2022-07-25T09:09:35.387Z,34.90
2022-07-25T09:12:06.229Z,34.70
2022-07-25T09:14:45.937Z,34.70
2022-07-25T09:17:22.228Z,34.60
2022-07-25T09:19:57.951Z,34.50
2022-07-25T09:22:27.444Z,34.50
2022-07-25T09:24:56.964Z,34.50
2022-07-25T09:27:26.405Z,34.40
2022-07-25T09:29:56.195Z,34.40
2022-07-25T09:32:26.509Z,34.30
2022-07-25T09:34:59.179Z,34.30
2022-07-25T09:37:29.620Z,34.30
2022-07-25T09:39:59.039Z,34.30
2022-07-25T09:42:34.108Z,34.30
2022-07-25T09:45:04.491Z,34.30
2022-07-25T09:47:35.961Z,34.30
2022-07-25T09:50:06.446Z,34.40
2022-07-25T09:52:36.687Z,34.30
2022-07-25T09:55:09.357Z,34.30
2022-07-25T09:57:40.395Z,34.30
2022-07-25T10:00:11.721Z,34.20
2022-07-25T10:02:57.874Z,34.20
2022-07-25T10:05:57.786Z,34.20
2022-07-25T10:08:27.958Z,34.10
2022-07-25T10:10:57.660Z,34.10
2022-07-25T10:13:39.328Z,34.00
2022-07-25T10:16:26.876Z,33.90
2022-07-25T10:18:59.302Z,33.90
2022-07-25T10:21:30.497Z,33.90
2022-07-25T10:24:12.420Z,33.80
2022-07-25T10:26:53.619Z,33.80
2022-07-25T10:29:22.917Z,33.80
2022-07-25T10:31:52.667Z,33.80
2022-07-25T10:34:32.828Z,33.70
2022-07-25T10:37:29.000Z,33.70
2022-07-25T10:39:58.434Z,33.70
2022-07-25T10:42:29.012Z,33.60
2022-07-25T10:44:58.806Z,33.60
2022-07-25T10:47:31.344Z,33.60
2022-07-25T10:50:21.939Z,33.50
2022-07-25T10:53:02.016Z,33.50
2022-07-25T10:55:31.620Z,33.40
2022-07-25T10:58:17.659Z,33.40
2022-07-25T11:00:47.893Z,33.30
2022-07-25T11:03:18.583Z,33.30
2022-07-25T11:05:52.917Z,33.20
2022-07-25T11:08:36.917Z,33.20
2022-07-25T11:11:06.551Z,33.20
2022-07-25T11:13:43.432Z,33.10
2022-07-25T11:16:12.980Z,33.00
2022-07-25T11:18:43.345Z,33.00
2022-07-25T11:21:12.808Z,32.90
2022-07-25T11:23:42.709Z,32.90
2022-07-25T11:26:13.783Z,32.80
2022-07-25T11:28:49.809Z,32.80
2022-07-25T11:31:21.349Z,32.80
2022-07-25T11:33:51.941Z,32.70
2022-07-25T11:36:21.474Z,32.70
2022-07-25T11:38:51.499Z,32.60
2022-07-25T11:41:31.156Z,32.60
2022-07-25T11:44:00.554Z,32.60
2022-07-25T11:46:30.133Z,32.50
2022-07-25T11:49:07.335Z,32.50
2022-07-25T11:51:41.028Z,32.40
2022-07-25T11:54:11.082Z,32.40
2022-07-25T11:56:43.269Z,32.30
2022-07-25T11:59:13.089Z,32.30
2022-07-25T12:01:46.141Z,32.20
2022-07-25T12:04:16.962Z,32.10
2022-07-25T12:06:49.537Z,32.10
2022-07-25T12:09:21.792Z,32.00
2022-07-25T12:11:51.644Z,32.00
2022-07-25T12:14:21.021Z,31.90
2022-07-25T12:16:50.396Z,31.90
2022-07-25T12:19:24.191Z,31.90
2022-07-25T12:21:53.379Z,31.80
2022-07-25T12:24:22.578Z,31.80
2022-07-25T12:26:51.724Z,31.80
2022-07-25T12:29:20.856Z,31.70
2022-07-25T12:31:49.933Z,31.60
2022-07-25T12:34:19.024Z,31.50
2022-07-25T12:36:48.208Z,31.50
2022-07-25T12:39:17.970Z,31.40
2022-07-25T12:41:47.035Z,31.40
2022-07-25T12:44:16.152Z,31.30
2022-07-25T12:46:49.533Z,31.20
2022-07-25T12:49:18.595Z,31.10
2022-07-25T12:51:47.722Z,31.10
2022-07-25T12:54:21.990Z,31.00
2022-07-25T12:56:51.964Z,30.90
2022-07-25T12:59:21.164Z,30.80
2022-07-25T13:01:50.506Z,30.70
2022-07-25T13:04:19.757Z,30.60
2022-07-25T13:06:48.961Z,30.60
2022-07-25T13:09:18.095Z,30.50
2022-07-25T13:11:47.276Z,30.40
2022-07-25T13:14:17.332Z,30.30
2022-07-25T13:16:48.045Z,30.30
2022-07-25T13:19:18.338Z,30.30
2022-07-25T13:21:47.804Z,30.20
2022-07-25T13:24:17.141Z,30.10
2022-07-25T13:26:46.520Z,30.10
2022-07-25T13:29:15.873Z,30.00
2022-07-25T13:31:48.637Z,30.00
2022-07-25T13:34:18.522Z,29.90
2022-07-25T13:36:49.220Z,29.90
2022-07-25T13:39:18.668Z,29.80
2022-07-25T13:41:48.245Z,29.80
2022-07-25T13:44:17.874Z,29.80
2022-07-25T13:46:51.098Z,29.70
2022-07-25T13:49:21.624Z,29.70
2022-07-25T13:51:50.998Z,29.70
2022-07-25T13:54:20.418Z,29.70
2022-07-25T13:56:49.843Z,29.60
2022-07-25T13:59:21.522Z,29.60
2022-07-25T14:02:29.777Z,29.60
2022-07-25T14:05:03.767Z,29.60
2022-07-25T14:07:33.780Z,29.60
2022-07-25T14:10:03.630Z,29.50
2022-07-25T14:12:33.028Z,29.50
2022-07-25T14:15:02.534Z,29.50
2022-07-25T14:17:32.028Z,29.50
2022-07-25T14:20:01.586Z,29.40
2022-07-25T14:22:37.046Z,29.40
2022-07-25T14:25:06.944Z,29.40
2022-07-25T14:27:37.023Z,29.40
2022-07-25T14:30:08.105Z,29.40
2022-07-25T14:32:38.085Z,29.40
2022-07-25T14:35:12.122Z,29.40
2022-07-25T14:37:44.146Z,29.40
2022-07-25T14:40:14.757Z,29.40
2022-07-25T14:42:45.654Z,29.30
2022-07-25T14:45:15.963Z,29.30
2022-07-25T14:47:45.577Z,29.30
2022-07-25T14:50:18.322Z,29.30
2022-07-25T14:52:47.691Z,29.20
2022-07-25T14:55:17.017Z,29.20
2022-07-25T14:57:46.862Z,29.20
2022-07-25T15:00:16.744Z,29.10
2022-07-25T15:02:46.212Z,29.10
2022-07-25T15:05:18.223Z,29.10
2022-07-25T15:07:50.689Z,29.00
2022-07-25T15:10:20.038Z,29.00
2022-07-25T15:12:54.269Z,29.00
2022-07-25T15:15:31.647Z,28.90
2022-07-25T15:18:01.016Z,28.90
2022-07-25T15:20:30.611Z,28.90
2022-07-25T15:22:59.738Z,28.80
2022-07-25T15:26:00.064Z,28.80
2022-07-25T15:28:18.252Z,28.80
2022-07-25T15:30:48.956Z,28.80
2022-07-25T15:33:18.815Z,28.70
2022-07-25T15:35:48.799Z,28.70
2022-07-25T15:38:18.943Z,28.70
2022-07-25T15:40:48.390Z,28.70
2022-07-25T15:43:17.485Z,28.60
2022-07-25T15:45:47.416Z,28.60
2022-07-25T15:48:17.882Z,28.60
2022-07-25T15:50:50.651Z,28.60
2022-07-25T15:53:19.835Z,28.60
2022-07-25T15:55:48.976Z,28.60
2022-07-25T15:58:18.344Z,28.50
2022-07-25T16:00:47.615Z,28.50
2022-07-25T16:03:16.993Z,28.50
2022-07-25T16:05:46.274Z,28.50
2022-07-25T16:08:15.488Z,28.50
2022-07-25T16:10:45.002Z,28.40
2022-07-25T16:13:14.106Z,28.40
2022-07-25T16:15:43.211Z,28.40
2022-07-25T16:18:12.465Z,28.40
2022-07-25T16:20:41.663Z,28.30
2022-07-25T16:23:10.838Z,28.30
2022-07-25T16:25:40.011Z,28.30
2022-07-25T16:28:09.192Z,28.30
2022-07-25T16:30:38.411Z,28.20
2022-07-25T16:33:07.580Z,28.20
2022-07-25T16:35:36.993Z,28.20
2022-07-25T16:38:06.241Z,28.20
2022-07-25T16:40:35.460Z,28.20
2022-07-25T16:43:04.579Z,28.20
2022-07-25T16:45:33.718Z,28.10
2022-07-25T16:48:02.929Z,28.20
2022-07-25T16:50:32.064Z,28.20
2022-07-25T16:53:01.194Z,28.20
2022-07-25T16:55:30.391Z,28.10
2022-07-25T16:58:00.590Z,28.10
2022-07-25T17:00:29.847Z,28.10
2022-07-25T17:02:59.579Z,28.10
2022-07-25T17:05:28.842Z,28.10
2022-07-25T17:07:59.632Z,28.10
2022-07-25T17:10:29.988Z,28.10
2022-07-25T17:12:59.425Z,28.10
2022-07-25T17:15:28.599Z,28.10
2022-07-25T17:17:57.806Z,28.10
2022-07-25T17:20:27.226Z,28.10
2022-07-25T17:22:56.794Z,28.10
2022-07-25T17:25:26.129Z,28.10
2022-07-25T17:27:55.565Z,28.20
2022-07-25T17:30:25.078Z,28.10
2022-07-25T17:32:54.670Z,28.20
2022-07-25T17:35:24.071Z,28.10
2022-07-25T17:37:54.027Z,28.10
2022-07-25T17:40:23.401Z,28.10
2022-07-25T17:42:52.804Z,28.10
2022-07-25T17:45:22.152Z,28.00
2022-07-25T17:47:53.561Z,28.00
2022-07-25T17:50:29.329Z,28.00
2022-07-25T17:53:00.705Z,28.00
2022-07-25T17:55:33.246Z,28.00
2022-07-25T17:58:07.815Z,27.90
2022-07-25T18:00:37.215Z,27.90
2022-07-25T18:03:06.714Z,27.90
2022-07-25T18:05:36.537Z,27.90
2022-07-25T18:08:06.151Z,27.90
2022-07-25T18:10:35.570Z,27.90
2022-07-25T18:13:05.546Z,27.90
2022-07-25T18:15:34.990Z,27.90
2022-07-25T18:18:04.373Z,27.90
2022-07-25T18:20:33.802Z,27.90
2022-07-25T18:23:03.165Z,27.90
2022-07-25T18:25:32.527Z,27.90
2022-07-25T18:28:02.620Z,27.90
2022-07-25T18:30:31.978Z,27.80
2022-07-25T18:33:01.322Z,27.80
2022-07-25T18:35:30.779Z,27.80
2022-07-25T18:38:00.129Z,27.80
2022-07-25T18:40:29.727Z,27.80
2022-07-25T18:42:59.111Z,27.80
2022-07-25T18:45:28.595Z,27.80
2022-07-25T18:47:58.053Z,27.80
2022-07-25T18:50:27.525Z,27.70
2022-07-25T18:52:57.638Z,27.70
2022-07-25T18:55:27.125Z,27.70
2022-07-25T18:57:56.581Z,27.70
2022-07-25T19:00:25.926Z,27.70
2022-07-25T19:02:55.273Z,27.70
2022-07-25T19:05:24.788Z,27.70
2022-07-25T19:07:54.874Z,27.70
2022-07-25T19:10:24.267Z,27.70
2022-07-25T19:12:53.636Z,27.60
2022-07-25T19:15:23.169Z,27.60
2022-07-25T19:17:52.503Z,27.60
2022-07-25T19:20:21.732Z,27.50
2022-07-25T19:22:51.008Z,27.60
2022-07-25T19:25:20.397Z,27.60
2022-07-25T19:27:49.728Z,27.50
2022-07-25T19:30:22.464Z,27.50
2022-07-25T19:32:51.869Z,27.50
2022-07-25T19:35:26.036Z,27.50
2022-07-25T19:37:55.348Z,27.50
2022-07-25T19:40:24.576Z,27.50
2022-07-25T19:42:53.663Z,27.50
2022-07-25T19:45:22.765Z,27.50
2022-07-25T19:47:52.379Z,27.50
2022-07-25T19:50:21.969Z,27.50
2022-07-25T19:52:51.141Z,27.50
2022-07-25T19:55:20.335Z,27.50
2022-07-25T19:57:49.441Z,27.60
2022-07-25T20:00:18.663Z,27.60
2022-07-25T20:02:47.836Z,27.60
2022-07-25T20:05:17.577Z,27.60
2022-07-25T20:07:46.728Z,27.50
2022-07-25T20:10:17.787Z,27.50
2022-07-25T20:12:47.330Z,27.50
2022-07-25T20:15:16.518Z,27.50
2022-07-25T20:17:45.846Z,27.50
2022-07-25T20:20:15.436Z,27.50
2022-07-25T20:22:45.403Z,27.50
2022-07-25T20:25:17.425Z,27.50
2022-07-25T20:27:46.935Z,27.50
2022-07-25T20:30:17.140Z,27.40
2022-07-25T20:32:46.542Z,27.40
2022-07-25T20:35:15.943Z,27.40
2022-07-25T20:37:45.353Z,27.30
2022-07-25T20:40:17.047Z,27.30
2022-07-25T20:42:46.381Z,27.30
2022-07-25T20:45:15.750Z,27.30
2022-07-25T20:47:45.099Z,27.30
2022-07-25T20:50:14.521Z,27.20
2022-07-25T20:52:44.469Z,27.20
2022-07-25T20:55:13.779Z,27.10
2022-07-25T20:57:46.205Z,27.20
2022-07-25T21:00:19.696Z,27.10
2022-07-25T21:02:49.357Z,27.10
2022-07-25T21:05:18.890Z,27.10
2022-07-25T21:07:48.502Z,27.10
2022-07-25T21:10:17.981Z,27.10
2022-07-25T21:12:47.473Z,27.10
2022-07-25T21:15:16.973Z,27.10
2022-07-25T21:17:46.740Z,27.10
2022-07-25T21:20:17.259Z,27.10
2022-07-25T21:22:47.106Z,27.10
2022-07-25T21:25:16.595Z,27.10
2022-07-25T21:27:46.024Z,27.10
2022-07-25T21:30:15.670Z,27.10
2022-07-25T21:32:46.036Z,27.00
2022-07-25T21:35:15.476Z,27.10
2022-07-25T21:37:44.821Z,27.00
2022-07-25T21:40:14.337Z,27.00
2022-07-25T21:42:44.137Z,27.00
2022-07-25T21:45:13.789Z,27.00
2022-07-25T21:47:43.175Z,26.90
2022-07-25T21:50:30.800Z,26.90
2022-07-25T21:53:01.044Z,26.90
2022-07-25T21:55:30.390Z,26.90
2022-07-25T21:57:59.833Z,26.90
2022-07-25T22:00:33.140Z,26.80
2022-07-25T22:03:03.044Z,26.90
2022-07-25T22:05:32.532Z,26.90
2022-07-25T22:08:01.859Z,26.80
2022-07-25T22:10:31.330Z,26.80
2022-07-25T22:13:00.660Z,26.80
2022-07-25T22:15:30.371Z,26.80
2022-07-25T22:17:59.815Z,26.80
2022-07-25T22:20:28.976Z,26.80
2022-07-25T22:22:58.265Z,26.80
2022-07-25T22:25:27.439Z,26.80
2022-07-25T22:27:56.566Z,26.80
2022-07-25T22:30:25.714Z,26.80
2022-07-25T22:32:54.910Z,26.80
2022-07-25T22:35:24.178Z,26.80
2022-07-25T22:37:53.266Z,26.80
2022-07-25T22:40:22.517Z,26.80
2022-07-25T22:42:51.715Z,26.80
2022-07-25T22:45:23.576Z,26.80
2022-07-25T22:47:56.284Z,26.80
2022-07-25T22:50:26.168Z,26.80
2022-07-25T22:52:55.294Z,26.80
2022-07-25T22:55:24.412Z,26.80
2022-07-25T22:57:53.513Z,26.80
2022-07-25T23:00:23.081Z,26.80
2022-07-25T23:02:52.229Z,26.80
2022-07-25T23:05:21.515Z,26.80
2022-07-25T23:07:50.583Z,26.80
2022-07-25T23:10:19.859Z,26.80
2022-07-25T23:12:49.004Z,26.70
2022-07-25T23:15:18.140Z,26.80
2022-07-25T23:17:47.257Z,26.80
2022-07-25T23:20:16.696Z,26.80
2022-07-25T23:22:46.072Z,26.80
2022-07-25T23:25:15.863Z,26.80
2022-07-25T23:27:45.223Z,26.80
2022-07-25T23:30:16.908Z,26.80
2022-07-25T23:32:46.423Z,26.90
2022-07-25T23:35:16.209Z,26.90
2022-07-25T23:37:45.556Z,26.90
2022-07-25T23:40:15.274Z,27.00
2022-07-25T23:42:44.610Z,27.00
2022-07-25T23:45:14.023Z,27.00
2022-07-25T23:47:43.724Z,27.10
2022-07-25T23:50:13.666Z,27.10
2022-07-25T23:52:42.964Z,27.20
2022-07-25T23:55:12.593Z,27.20
2022-07-25T23:57:42.244Z,27.30
